sensor_id;sensor_type;location;lat;lon;timestamp;P1;durP1;ratioP1;P2;durP2;ratioP2
59028;SDS011;45919;51.420;5.454;2022-07-03T00:00:49;8.10;;;7.00;;
59028;SDS011;45919;51.420;5.454;2022-07-03T00:01:51;10.77;;;7.40;;
59028;SDS011;45919;51.420;5.454;2022-07-03T00:02:53;9.32;;;6.75;;
59028;SDS011;45919;51.420;5.454;2022-07-03T00:03:54;8.88;;;7.25;;
59028;SDS011;45919;51.420;5.454;2022-07-03T00:04:56;10.05;;;6.97;;
59028;SDS011;45919;51.420;5.454;2022-07-03T00:05:57;9.90;;;6.95;;
59028;SDS011;45919;51.420;5.454;2022-07-03T00:06:59;8.73;;;6.70;;
59028;SDS011;45919;51.420;5.454;2022-07-03T00:08:02;10.13;;;7.13;;
59028;SDS011;45919;51.420;5.454;2022-07-03T00:09:05;8.63;;;6.97;;
59028;SDS011;45919;51.420;5.454;2022-07-03T00:10:07;7.72;;;6.93;;
59028;SDS011;45919;51.420;5.454;2022-07-03T00:11:09;7.63;;;6.70;;
59028;SDS011;45919;51.420;5.454;2022-07-03T00:12:12;9.63;;;7.15;;
59028;SDS011;45919;51.420;5.454;2022-07-03T00:13:14;9.63;;;6.97;;
59028;SDS011;45919;51.420;5.454;2022-07-03T00:14:15;9.80;;;7.20;;
59028;SDS011;45919;51.420;5.454;2022-07-03T00:15:17;8.77;;;6.78;;
59028;SDS011;45919;51.420;5.454;2022-07-03T00:16:19;8.65;;;6.80;;
59028;SDS011;45919;51.420;5.454;2022-07-03T00:17:20;8.15;;;7.00;;
59028;SDS011;45919;51.420;5.454;2022-07-03T00:18:22;11.30;;;7.05;;
59028;SDS011;45919;51.420;5.454;2022-07-03T00:19:24;9.43;;;6.90;;
59028;SDS011;45919;51.420;5.454;2022-07-03T00:20:25;12.85;;;8.00;;
59028;SDS011;45919;51.420;5.454;2022-07-03T00:21:33;9.10;;;7.10;;
59028;SDS011;45919;51.420;5.454;2022-07-03T00:22:37;8.50;;;6.82;;
59028;SDS011;45919;51.420;5.454;2022-07-03T00:23:47;13.38;;;7.35;;
59028;SDS011;45919;51.420;5.454;2022-07-03T00:25:02;10.30;;;7.55;;
59028;SDS011;45919;51.420;5.454;2022-07-03T00:26:05;8.35;;;7.50;;
59028;SDS011;45919;51.420;5.454;2022-07-03T00:27:08;11.07;;;8.35;;
59028;SDS011;45919;51.420;5.454;2022-07-03T00:28:10;11.05;;;7.97;;
59028;SDS011;45919;51.420;5.454;2022-07-03T00:29:12;11.18;;;8.43;;
59028;SDS011;45919;51.420;5.454;2022-07-03T00:30:16;10.80;;;9.05;;
59028;SDS011;45919;51.420;5.454;2022-07-03T00:31:18;11.35;;;9.63;;
59028;SDS011;45919;51.420;5.454;2022-07-03T00:32:23;11.35;;;9.30;;
59028;SDS011;45919;51.420;5.454;2022-07-03T00:33:26;10.35;;;8.38;;
59028;SDS011;45919;51.420;5.454;2022-07-03T00:34:30;10.65;;;8.65;;
59028;SDS011;45919;51.420;5.454;2022-07-03T00:35:32;10.65;;;9.57;;
59028;SDS011;45919;51.420;5.454;2022-07-03T00:36:36;10.50;;;9.50;;
59028;SDS011;45919;51.420;5.454;2022-07-03T00:37:38;14.68;;;11.15;;
59028;SDS011;45919;51.420;5.454;2022-07-03T00:38:40;14.50;;;11.27;;
59028;SDS011;45919;51.420;5.454;2022-07-03T00:39:43;13.23;;;11.82;;
59028;SDS011;45919;51.420;5.454;2022-07-03T00:40:45;15.32;;;11.57;;
59028;SDS011;45919;51.420;5.454;2022-07-03T00:41:47;14.00;;;12.35;;
59028;SDS011;45919;51.420;5.454;2022-07-03T00:43:01;15.25;;;12.85;;
59028;SDS011;45919;51.420;5.454;2022-07-03T00:44:03;15.77;;;12.93;;
59028;SDS011;45919;51.420;5.454;2022-07-03T00:45:06;14.52;;;11.90;;
59028;SDS011;45919;51.420;5.454;2022-07-03T00:46:09;14.48;;;12.30;;
59028;SDS011;45919;51.420;5.454;2022-07-03T00:47:12;13.50;;;12.07;;
59028;SDS011;45919;51.420;5.454;2022-07-03T00:48:15;15.32;;;11.75;;
59028;SDS011;45919;51.420;5.454;2022-07-03T00:49:18;13.35;;;11.95;;
59028;SDS011;45919;51.420;5.454;2022-07-03T00:50:24;15.65;;;11.95;;
59028;SDS011;45919;51.420;5.454;2022-07-03T00:51:28;12.65;;;11.35;;
59028;SDS011;45919;51.420;5.454;2022-07-03T00:52:30;12.60;;;11.35;;
59028;SDS011;45919;51.420;5.454;2022-07-03T00:53:32;13.70;;;12.30;;
59028;SDS011;45919;51.420;5.454;2022-07-03T00:54:37;12.93;;;11.80;;
59028;SDS011;45919;51.420;5.454;2022-07-03T00:55:43;13.38;;;12.13;;
59028;SDS011;45919;51.420;5.454;2022-07-03T00:56:52;13.60;;;12.10;;
59028;SDS011;45919;51.420;5.454;2022-07-03T00:57:56;14.30;;;12.88;;
59028;SDS011;45919;51.420;5.454;2022-07-03T00:58:59;13.77;;;12.50;;
59028;SDS011;45919;51.420;5.454;2022-07-03T01:00:02;13.68;;;11.85;;
59028;SDS011;45919;51.420;5.454;2022-07-03T01:01:05;13.23;;;11.93;;
59028;SDS011;45919;51.420;5.454;2022-07-03T01:02:08;13.73;;;11.98;;
59028;SDS011;45919;51.420;5.454;2022-07-03T01:03:20;13.68;;;12.30;;
59028;SDS011;45919;51.420;5.454;2022-07-03T01:04:34;14.00;;;12.60;;
59028;SDS011;45919;51.420;5.454;2022-07-03T01:05:42;14.18;;;12.77;;
59028;SDS011;45919;51.420;5.454;2022-07-03T01:07:00;14.45;;;13.02;;
59028;SDS011;45919;51.420;5.454;2022-07-03T01:08:26;15.40;;;12.57;;
59028;SDS011;45919;51.420;5.454;2022-07-03T01:09:37;14.15;;;12.68;;
59028;SDS011;45919;51.420;5.454;2022-07-03T01:12:15;15.05;;;12.75;;
59028;SDS011;45919;51.420;5.454;2022-07-03T01:14:44;14.02;;;12.30;;
59028;SDS011;45919;51.420;5.454;2022-07-03T01:16:07;15.02;;;12.80;;
59028;SDS011;45919;51.420;5.454;2022-07-03T01:17:22;14.00;;;12.60;;
59028;SDS011;45919;51.420;5.454;2022-07-03T01:20:22;13.85;;;12.45;;
59028;SDS011;45919;51.420;5.454;2022-07-03T01:22:42;15.68;;;13.50;;
59028;SDS011;45919;51.420;5.454;2022-07-03T01:26:38;14.68;;;12.80;;
59028;SDS011;45919;51.420;5.454;2022-07-03T01:27:56;14.82;;;13.10;;
59028;SDS011;45919;51.420;5.454;2022-07-03T01:29:03;15.57;;;12.70;;
59028;SDS011;45919;51.420;5.454;2022-07-03T01:30:10;14.05;;;12.65;;
59028;SDS011;45919;51.420;5.454;2022-07-03T01:31:18;14.60;;;13.10;;
59028;SDS011;45919;51.420;5.454;2022-07-03T01:32:22;14.55;;;13.02;;
59028;SDS011;45919;51.420;5.454;2022-07-03T01:33:26;14.40;;;12.90;;
59028;SDS011;45919;51.420;5.454;2022-07-03T01:34:33;14.25;;;12.85;;
59028;SDS011;45919;51.420;5.454;2022-07-03T01:35:38;17.52;;;13.55;;
59028;SDS011;45919;51.420;5.454;2022-07-03T01:36:42;16.30;;;13.10;;
59028;SDS011;45919;51.420;5.454;2022-07-03T01:37:45;15.13;;;12.80;;
59028;SDS011;45919;51.420;5.454;2022-07-03T01:38:47;14.88;;;13.32;;
59028;SDS011;45919;51.420;5.454;2022-07-03T01:39:52;16.35;;;14.13;;
59028;SDS011;45919;51.420;5.454;2022-07-03T01:40:56;14.88;;;13.38;;
59028;SDS011;45919;51.420;5.454;2022-07-03T01:41:59;18.00;;;13.27;;
59028;SDS011;45919;51.420;5.454;2022-07-03T01:43:02;14.90;;;13.50;;
59028;SDS011;45919;51.420;5.454;2022-07-03T01:44:05;14.90;;;13.38;;
59028;SDS011;45919;51.420;5.454;2022-07-03T01:45:08;14.27;;;12.80;;
59028;SDS011;45919;51.420;5.454;2022-07-03T01:46:11;14.02;;;12.60;;
59028;SDS011;45919;51.420;5.454;2022-07-03T01:47:14;14.13;;;12.73;;
59028;SDS011;45919;51.420;5.454;2022-07-03T01:48:17;14.95;;;13.18;;
59028;SDS011;45919;51.420;5.454;2022-07-03T01:49:20;16.42;;;13.40;;
59028;SDS011;45919;51.420;5.454;2022-07-03T01:50:23;15.93;;;13.50;;
59028;SDS011;45919;51.420;5.454;2022-07-03T01:51:26;14.52;;;13.02;;
59028;SDS011;45919;51.420;5.454;2022-07-03T01:52:31;15.07;;;13.23;;
59028;SDS011;45919;51.420;5.454;2022-07-03T01:53:49;15.80;;;13.65;;
59028;SDS011;45919;51.420;5.454;2022-07-03T01:54:52;14.85;;;13.25;;
59028;SDS011;45919;51.420;5.454;2022-07-03T01:55:56;16.23;;;13.20;;
59028;SDS011;45919;51.420;5.454;2022-07-03T01:57:00;16.67;;;13.70;;
59028;SDS011;45919;51.420;5.454;2022-07-03T01:58:04;14.85;;;13.15;;
59028;SDS011;45919;51.420;5.454;2022-07-03T01:59:06;14.82;;;13.32;;
59028;SDS011;45919;51.420;5.454;2022-07-03T02:00:08;17.65;;;14.30;;
59028;SDS011;45919;51.420;5.454;2022-07-03T02:01:12;14.68;;;12.90;;
59028;SDS011;45919;51.420;5.454;2022-07-03T02:02:24;15.27;;;13.75;;
59028;SDS011;45919;51.420;5.454;2022-07-03T02:03:33;13.63;;;12.27;;
59028;SDS011;45919;51.420;5.454;2022-07-03T02:04:52;15.57;;;13.90;;
59028;SDS011;45919;51.420;5.454;2022-07-03T02:06:08;15.38;;;13.07;;
59028;SDS011;45919;51.420;5.454;2022-07-03T02:07:21;15.63;;;13.13;;
59028;SDS011;45919;51.420;5.454;2022-07-03T02:08:36;14.23;;;12.60;;
59028;SDS011;45919;51.420;5.454;2022-07-03T02:11:13;18.67;;;13.90;;
59028;SDS011;45919;51.420;5.454;2022-07-03T02:12:18;14.35;;;12.95;;
59028;SDS011;45919;51.420;5.454;2022-07-03T02:13:24;14.95;;;13.27;;
59028;SDS011;45919;51.420;5.454;2022-07-03T02:14:32;14.35;;;13.02;;
59028;SDS011;45919;51.420;5.454;2022-07-03T02:15:38;15.30;;;13.23;;
59028;SDS011;45919;51.420;5.454;2022-07-03T02:17:55;14.98;;;13.38;;
59028;SDS011;45919;51.420;5.454;2022-07-03T02:19:05;15.35;;;13.48;;
59028;SDS011;45919;51.420;5.454;2022-07-03T02:20:10;14.77;;;13.23;;
59028;SDS011;45919;51.420;5.454;2022-07-03T02:22:25;17.23;;;13.65;;
59028;SDS011;45919;51.420;5.454;2022-07-03T02:23:46;15.93;;;13.35;;
59028;SDS011;45919;51.420;5.454;2022-07-03T02:25:36;14.43;;;12.52;;
59028;SDS011;45919;51.420;5.454;2022-07-03T02:26:41;15.13;;;13.52;;
59028;SDS011;45919;51.420;5.454;2022-07-03T02:27:46;16.02;;;13.48;;
59028;SDS011;45919;51.420;5.454;2022-07-03T02:30:14;16.50;;;13.50;;
59028;SDS011;45919;51.420;5.454;2022-07-03T02:31:17;15.15;;;13.52;;
59028;SDS011;45919;51.420;5.454;2022-07-03T02:32:22;14.57;;;13.05;;
59028;SDS011;45919;51.420;5.454;2022-07-03T02:33:25;13.80;;;12.38;;
59028;SDS011;45919;51.420;5.454;2022-07-03T02:34:30;16.30;;;13.30;;
59028;SDS011;45919;51.420;5.454;2022-07-03T02:35:34;16.50;;;13.20;;
59028;SDS011;45919;51.420;5.454;2022-07-03T02:36:35;16.15;;;12.60;;
59028;SDS011;45919;51.420;5.454;2022-07-03T02:39:11;16.35;;;12.85;;
59028;SDS011;45919;51.420;5.454;2022-07-03T02:41:45;15.75;;;12.63;;
59028;SDS011;45919;51.420;5.454;2022-07-03T02:44:01;14.43;;;12.10;;
59028;SDS011;45919;51.420;5.454;2022-07-03T02:45:09;14.70;;;11.77;;
59028;SDS011;45919;51.420;5.454;2022-07-03T02:47:56;14.02;;;12.45;;
59028;SDS011;45919;51.420;5.454;2022-07-03T02:50:22;14.98;;;11.88;;
59028;SDS011;45919;51.420;5.454;2022-07-03T02:51:28;15.27;;;11.70;;
59028;SDS011;45919;51.420;5.454;2022-07-03T02:53:44;14.32;;;12.20;;
59028;SDS011;45919;51.420;5.454;2022-07-03T02:54:53;12.30;;;10.90;;
59028;SDS011;45919;51.420;5.454;2022-07-03T02:56:05;12.68;;;11.38;;
59028;SDS011;45919;51.420;5.454;2022-07-03T02:57:16;12.27;;;11.02;;
59028;SDS011;45919;51.420;5.454;2022-07-03T03:01:06;13.57;;;11.32;;
59028;SDS011;45919;51.420;5.454;2022-07-03T03:03:25;12.63;;;11.10;;
59028;SDS011;45919;51.420;5.454;2022-07-03T03:04:29;15.40;;;12.52;;
59028;SDS011;45919;51.420;5.454;2022-07-03T03:06:42;11.50;;;10.30;;
59028;SDS011;45919;51.420;5.454;2022-07-03T03:09:42;13.10;;;10.15;;
59028;SDS011;45919;51.420;5.454;2022-07-03T03:10:46;12.48;;;10.45;;
59028;SDS011;45919;51.420;5.454;2022-07-03T03:11:49;13.50;;;10.75;;
59028;SDS011;45919;51.420;5.454;2022-07-03T03:12:52;11.80;;;10.52;;
59028;SDS011;45919;51.420;5.454;2022-07-03T03:14:08;12.05;;;10.43;;
59028;SDS011;45919;51.420;5.454;2022-07-03T03:15:12;12.68;;;11.20;;
59028;SDS011;45919;51.420;5.454;2022-07-03T03:16:14;13.75;;;11.07;;
59028;SDS011;45919;51.420;5.454;2022-07-03T03:17:17;12.27;;;10.82;;
59028;SDS011;45919;51.420;5.454;2022-07-03T03:18:20;12.30;;;11.10;;
59028;SDS011;45919;51.420;5.454;2022-07-03T03:19:24;13.25;;;11.45;;
59028;SDS011;45919;51.420;5.454;2022-07-03T03:20:27;13.77;;;10.57;;
59028;SDS011;45919;51.420;5.454;2022-07-03T03:21:31;13.27;;;11.18;;
59028;SDS011;45919;51.420;5.454;2022-07-03T03:22:52;14.07;;;10.60;;
59028;SDS011;45919;51.420;5.454;2022-07-03T03:24:08;13.43;;;11.00;;
59028;SDS011;45919;51.420;5.454;2022-07-03T03:25:10;13.48;;;11.05;;
59028;SDS011;45919;51.420;5.454;2022-07-03T03:26:12;13.40;;;11.10;;
59028;SDS011;45919;51.420;5.454;2022-07-03T03:27:14;12.13;;;10.55;;
59028;SDS011;45919;51.420;5.454;2022-07-03T03:28:16;12.50;;;11.10;;
59028;SDS011;45919;51.420;5.454;2022-07-03T03:29:18;11.82;;;10.63;;
59028;SDS011;45919;51.420;5.454;2022-07-03T03:30:20;11.50;;;10.32;;
59028;SDS011;45919;51.420;5.454;2022-07-03T03:31:22;12.55;;;10.65;;
59028;SDS011;45919;51.420;5.454;2022-07-03T03:32:23;13.15;;;10.32;;
59028;SDS011;45919;51.420;5.454;2022-07-03T03:33:26;13.05;;;10.77;;
59028;SDS011;45919;51.420;5.454;2022-07-03T03:34:28;13.35;;;10.98;;
59028;SDS011;45919;51.420;5.454;2022-07-03T03:35:32;12.05;;;10.82;;
59028;SDS011;45919;51.420;5.454;2022-07-03T03:36:34;11.25;;;9.20;;
59028;SDS011;45919;51.420;5.454;2022-07-03T03:37:36;13.25;;;10.27;;
59028;SDS011;45919;51.420;5.454;2022-07-03T03:38:39;13.68;;;9.93;;
59028;SDS011;45919;51.420;5.454;2022-07-03T03:39:41;8.88;;;7.97;;
59028;SDS011;45919;51.420;5.454;2022-07-03T03:40:44;11.85;;;10.07;;
59028;SDS011;45919;51.420;5.454;2022-07-03T03:41:47;14.32;;;10.60;;
59028;SDS011;45919;51.420;5.454;2022-07-03T03:42:48;12.02;;;10.68;;
59028;SDS011;45919;51.420;5.454;2022-07-03T03:43:50;11.70;;;10.50;;
59028;SDS011;45919;51.420;5.454;2022-07-03T03:44:51;12.38;;;10.93;;
59028;SDS011;45919;51.420;5.454;2022-07-03T03:45:53;13.65;;;11.25;;
59028;SDS011;45919;51.420;5.454;2022-07-03T03:46:55;13.23;;;10.57;;
59028;SDS011;45919;51.420;5.454;2022-07-03T03:47:56;13.00;;;10.68;;
59028;SDS011;45919;51.420;5.454;2022-07-03T03:48:58;14.75;;;10.73;;
59028;SDS011;45919;51.420;5.454;2022-07-03T03:50:00;11.90;;;10.25;;
59028;SDS011;45919;51.420;5.454;2022-07-03T03:51:03;11.60;;;10.40;;
59028;SDS011;45919;51.420;5.454;2022-07-03T03:52:06;11.70;;;9.57;;
59028;SDS011;45919;51.420;5.454;2022-07-03T03:53:08;12.45;;;10.18;;
59028;SDS011;45919;51.420;5.454;2022-07-03T03:54:10;11.93;;;10.15;;
59028;SDS011;45919;51.420;5.454;2022-07-03T03:55:12;13.20;;;10.90;;
59028;SDS011;45919;51.420;5.454;2022-07-03T03:56:13;12.43;;;9.93;;
59028;SDS011;45919;51.420;5.454;2022-07-03T03:57:19;12.75;;;9.57;;
59028;SDS011;45919;51.420;5.454;2022-07-03T03:58:22;12.88;;;9.35;;
59028;SDS011;45919;51.420;5.454;2022-07-03T03:59:23;11.30;;;9.02;;
59028;SDS011;45919;51.420;5.454;2022-07-03T04:00:25;13.32;;;9.30;;
59028;SDS011;45919;51.420;5.454;2022-07-03T04:01:26;9.43;;;7.80;;
59028;SDS011;45919;51.420;5.454;2022-07-03T04:02:28;11.55;;;9.15;;
59028;SDS011;45919;51.420;5.454;2022-07-03T04:03:30;10.38;;;8.98;;
59028;SDS011;45919;51.420;5.454;2022-07-03T04:04:33;10.77;;;9.05;;
59028;SDS011;45919;51.420;5.454;2022-07-03T04:05:34;11.85;;;9.45;;
59028;SDS011;45919;51.420;5.454;2022-07-03T04:06:36;10.52;;;9.00;;
59028;SDS011;45919;51.420;5.454;2022-07-03T04:07:37;10.93;;;8.98;;
59028;SDS011;45919;51.420;5.454;2022-07-03T04:08:39;9.95;;;8.73;;
59028;SDS011;45919;51.420;5.454;2022-07-03T04:09:41;12.23;;;9.30;;
59028;SDS011;45919;51.420;5.454;2022-07-03T04:10:42;11.20;;;9.05;;
59028;SDS011;45919;51.420;5.454;2022-07-03T04:11:44;10.50;;;9.13;;
59028;SDS011;45919;51.420;5.454;2022-07-03T04:12:45;11.27;;;8.73;;
59028;SDS011;45919;51.420;5.454;2022-07-03T04:13:47;10.32;;;8.57;;
59028;SDS011;45919;51.420;5.454;2022-07-03T04:14:49;11.15;;;8.82;;
59028;SDS011;45919;51.420;5.454;2022-07-03T04:15:51;11.15;;;8.80;;
59028;SDS011;45919;51.420;5.454;2022-07-03T04:16:54;10.02;;;8.75;;
59028;SDS011;45919;51.420;5.454;2022-07-03T04:17:55;9.75;;;8.75;;
59028;SDS011;45919;51.420;5.454;2022-07-03T04:18:57;12.82;;;9.15;;
59028;SDS011;45919;51.420;5.454;2022-07-03T04:19:59;11.77;;;9.15;;
59028;SDS011;45919;51.420;5.454;2022-07-03T04:21:00;9.98;;;8.48;;
59028;SDS011;45919;51.420;5.454;2022-07-03T04:22:02;11.70;;;8.73;;
59028;SDS011;45919;51.420;5.454;2022-07-03T04:23:09;10.13;;;8.77;;
59028;SDS011;45919;51.420;5.454;2022-07-03T04:24:11;11.15;;;8.82;;
59028;SDS011;45919;51.420;5.454;2022-07-03T04:25:13;12.38;;;9.63;;
59028;SDS011;45919;51.420;5.454;2022-07-03T04:26:14;9.80;;;8.65;;
59028;SDS011;45919;51.420;5.454;2022-07-03T04:27:16;10.15;;;9.02;;
59028;SDS011;45919;51.420;5.454;2022-07-03T04:28:17;10.30;;;8.90;;
59028;SDS011;45919;51.420;5.454;2022-07-03T04:29:20;13.48;;;9.63;;
59028;SDS011;45919;51.420;5.454;2022-07-03T04:30:22;11.23;;;8.85;;
59028;SDS011;45919;51.420;5.454;2022-07-03T04:31:23;11.75;;;9.45;;
59028;SDS011;45919;51.420;5.454;2022-07-03T04:32:25;10.68;;;9.45;;
59028;SDS011;45919;51.420;5.454;2022-07-03T04:33:27;10.55;;;9.32;;
59028;SDS011;45919;51.420;5.454;2022-07-03T04:34:28;13.52;;;9.50;;
59028;SDS011;45919;51.420;5.454;2022-07-03T04:35:30;11.52;;;10.32;;
59028;SDS011;45919;51.420;5.454;2022-07-03T04:36:32;11.02;;;9.80;;
59028;SDS011;45919;51.420;5.454;2022-07-03T04:37:33;12.25;;;9.23;;
59028;SDS011;45919;51.420;5.454;2022-07-03T04:38:35;11.30;;;9.20;;
59028;SDS011;45919;51.420;5.454;2022-07-03T04:39:37;10.02;;;8.88;;
59028;SDS011;45919;51.420;5.454;2022-07-03T04:40:38;12.95;;;10.40;;
59028;SDS011;45919;51.420;5.454;2022-07-03T04:41:40;12.45;;;10.05;;
59028;SDS011;45919;51.420;5.454;2022-07-03T04:42:41;13.38;;;9.95;;
59028;SDS011;45919;51.420;5.454;2022-07-03T04:43:43;12.98;;;9.73;;
59028;SDS011;45919;51.420;5.454;2022-07-03T04:44:45;10.27;;;9.18;;
59028;SDS011;45919;51.420;5.454;2022-07-03T04:45:46;12.93;;;10.27;;
59028;SDS011;45919;51.420;5.454;2022-07-03T04:46:48;13.13;;;9.20;;
59028;SDS011;45919;51.420;5.454;2022-07-03T04:47:49;11.05;;;9.43;;
59028;SDS011;45919;51.420;5.454;2022-07-03T04:48:51;10.45;;;8.70;;
59028;SDS011;45919;51.420;5.454;2022-07-03T04:49:53;11.32;;;9.20;;
59028;SDS011;45919;51.420;5.454;2022-07-03T04:50:55;12.07;;;9.77;;
59028;SDS011;45919;51.420;5.454;2022-07-03T04:51:56;11.80;;;9.07;;
59028;SDS011;45919;51.420;5.454;2022-07-03T04:52:58;11.77;;;9.57;;
59028;SDS011;45919;51.420;5.454;2022-07-03T04:53:59;10.30;;;8.52;;
59028;SDS011;45919;51.420;5.454;2022-07-03T04:55:01;12.07;;;8.48;;
59028;SDS011;45919;51.420;5.454;2022-07-03T04:56:03;8.65;;;7.65;;
59028;SDS011;45919;51.420;5.454;2022-07-03T04:57:05;10.10;;;8.18;;
59028;SDS011;45919;51.420;5.454;2022-07-03T04:58:06;10.00;;;8.25;;
59028;SDS011;45919;51.420;5.454;2022-07-03T04:59:08;12.07;;;8.48;;
59028;SDS011;45919;51.420;5.454;2022-07-03T05:00:10;9.95;;;8.25;;
59028;SDS011;45919;51.420;5.454;2022-07-03T05:01:11;9.00;;;7.60;;
59028;SDS011;45919;51.420;5.454;2022-07-03T05:02:13;9.90;;;7.75;;
59028;SDS011;45919;51.420;5.454;2022-07-03T05:03:15;8.95;;;7.72;;
59028;SDS011;45919;51.420;5.454;2022-07-03T05:04:16;11.60;;;8.15;;
59028;SDS011;45919;51.420;5.454;2022-07-03T05:06:22;9.02;;;7.40;;
59028;SDS011;45919;51.420;5.454;2022-07-03T05:07:23;12.45;;;7.40;;
59028;SDS011;45919;51.420;5.454;2022-07-03T05:08:25;10.48;;;7.45;;
59028;SDS011;45919;51.420;5.454;2022-07-03T05:09:27;9.50;;;7.38;;
59028;SDS011;45919;51.420;5.454;2022-07-03T05:10:28;10.65;;;8.02;;
59028;SDS011;45919;51.420;5.454;2022-07-03T05:11:30;9.73;;;6.78;;
59028;SDS011;45919;51.420;5.454;2022-07-03T05:12:31;8.30;;;7.25;;
59028;SDS011;45919;51.420;5.454;2022-07-03T05:13:35;10.85;;;6.93;;
59028;SDS011;45919;51.420;5.454;2022-07-03T05:14:36;11.48;;;7.43;;
59028;SDS011;45919;51.420;5.454;2022-07-03T05:15:38;9.68;;;6.70;;
59028;SDS011;45919;51.420;5.454;2022-07-03T05:16:40;9.80;;;6.60;;
59028;SDS011;45919;51.420;5.454;2022-07-03T05:17:41;11.70;;;6.97;;
59028;SDS011;45919;51.420;5.454;2022-07-03T05:18:43;10.35;;;6.60;;
59028;SDS011;45919;51.420;5.454;2022-07-03T05:19:45;9.10;;;6.72;;
59028;SDS011;45919;51.420;5.454;2022-07-03T05:20:46;8.50;;;5.82;;
59028;SDS011;45919;51.420;5.454;2022-07-03T05:21:48;10.30;;;6.32;;
59028;SDS011;45919;51.420;5.454;2022-07-03T05:22:53;8.63;;;6.90;;
59028;SDS011;45919;51.420;5.454;2022-07-03T05:23:55;7.80;;;6.40;;
59028;SDS011;45919;51.420;5.454;2022-07-03T05:24:57;9.75;;;6.90;;
59028;SDS011;45919;51.420;5.454;2022-07-03T05:25:59;11.10;;;6.93;;
59028;SDS011;45919;51.420;5.454;2022-07-03T05:27:00;10.48;;;7.13;;
59028;SDS011;45919;51.420;5.454;2022-07-03T05:28:02;9.93;;;7.28;;
59028;SDS011;45919;51.420;5.454;2022-07-03T05:29:04;10.40;;;6.97;;
59028;SDS011;45919;51.420;5.454;2022-07-03T05:30:05;9.60;;;6.80;;
59028;SDS011;45919;51.420;5.454;2022-07-03T05:31:08;11.15;;;6.93;;
59028;SDS011;45919;51.420;5.454;2022-07-03T05:32:09;11.48;;;7.35;;
59028;SDS011;45919;51.420;5.454;2022-07-03T05:33:11;11.18;;;7.13;;
59028;SDS011;45919;51.420;5.454;2022-07-03T05:34:12;9.57;;;6.95;;
59028;SDS011;45919;51.420;5.454;2022-07-03T05:35:14;9.18;;;7.00;;
59028;SDS011;45919;51.420;5.454;2022-07-03T05:36:16;8.77;;;7.22;;
59028;SDS011;45919;51.420;5.454;2022-07-03T05:37:17;8.60;;;7.20;;
59028;SDS011;45919;51.420;5.454;2022-07-03T05:38:19;8.15;;;6.97;;
59028;SDS011;45919;51.420;5.454;2022-07-03T05:39:39;11.82;;;7.10;;
59028;SDS011;45919;51.420;5.454;2022-07-03T05:40:41;7.97;;;6.53;;
59028;SDS011;45919;51.420;5.454;2022-07-03T05:41:43;11.43;;;7.78;;
59028;SDS011;45919;51.420;5.454;2022-07-03T05:42:45;12.85;;;7.72;;
59028;SDS011;45919;51.420;5.454;2022-07-03T05:43:46;8.27;;;6.70;;
59028;SDS011;45919;51.420;5.454;2022-07-03T05:44:48;10.52;;;6.55;;
59028;SDS011;45919;51.420;5.454;2022-07-03T05:45:49;9.68;;;7.10;;
59028;SDS011;45919;51.420;5.454;2022-07-03T05:46:51;11.52;;;7.00;;
59028;SDS011;45919;51.420;5.454;2022-07-03T05:47:53;9.55;;;7.28;;
59028;SDS011;45919;51.420;5.454;2022-07-03T05:48:54;8.38;;;6.35;;
59028;SDS011;45919;51.420;5.454;2022-07-03T05:49:56;10.10;;;6.68;;
59028;SDS011;45919;51.420;5.454;2022-07-03T05:50:57;11.05;;;7.00;;
59028;SDS011;45919;51.420;5.454;2022-07-03T05:51:59;12.57;;;7.00;;
59028;SDS011;45919;51.420;5.454;2022-07-03T05:53:01;10.98;;;6.85;;
59028;SDS011;45919;51.420;5.454;2022-07-03T05:54:02;12.18;;;7.35;;
59028;SDS011;45919;51.420;5.454;2022-07-03T05:55:04;9.70;;;6.82;;
59028;SDS011;45919;51.420;5.454;2022-07-03T05:56:06;8.20;;;6.70;;
59028;SDS011;45919;51.420;5.454;2022-07-03T05:57:08;11.63;;;7.25;;
59028;SDS011;45919;51.420;5.454;2022-07-03T05:58:09;8.55;;;6.75;;
59028;SDS011;45919;51.420;5.454;2022-07-03T05:59:11;8.18;;;6.10;;
59028;SDS011;45919;51.420;5.454;2022-07-03T06:00:13;10.80;;;6.72;;
59028;SDS011;45919;51.420;5.454;2022-07-03T06:01:15;11.90;;;6.85;;
59028;SDS011;45919;51.420;5.454;2022-07-03T06:02:16;9.43;;;6.45;;
59028;SDS011;45919;51.420;5.454;2022-07-03T06:03:18;11.85;;;7.40;;
59028;SDS011;45919;51.420;5.454;2022-07-03T06:04:20;10.00;;;6.53;;
59028;SDS011;45919;51.420;5.454;2022-07-03T06:05:21;11.85;;;6.78;;
59028;SDS011;45919;51.420;5.454;2022-07-03T06:06:23;9.40;;;7.20;;
59028;SDS011;45919;51.420;5.454;2022-07-03T06:07:24;8.95;;;7.00;;
59028;SDS011;45919;51.420;5.454;2022-07-03T06:08:26;9.20;;;7.18;;
59028;SDS011;45919;51.420;5.454;2022-07-03T06:09:28;10.15;;;7.53;;
59028;SDS011;45919;51.420;5.454;2022-07-03T06:10:30;11.52;;;7.18;;
59028;SDS011;45919;51.420;5.454;2022-07-03T06:11:32;10.55;;;6.63;;
59028;SDS011;45919;51.420;5.454;2022-07-03T06:12:33;9.43;;;6.72;;
59028;SDS011;45919;51.420;5.454;2022-07-03T06:13:35;10.75;;;6.88;;
59028;SDS011;45919;51.420;5.454;2022-07-03T06:14:36;10.90;;;7.22;;
59028;SDS011;45919;51.420;5.454;2022-07-03T06:15:38;11.18;;;6.70;;
59028;SDS011;45919;51.420;5.454;2022-07-03T06:16:40;13.05;;;7.13;;
59028;SDS011;45919;51.420;5.454;2022-07-03T06:17:41;11.18;;;6.82;;
59028;SDS011;45919;51.420;5.454;2022-07-03T06:18:45;8.85;;;6.85;;
59028;SDS011;45919;51.420;5.454;2022-07-03T06:19:46;12.20;;;7.10;;
59028;SDS011;45919;51.420;5.454;2022-07-03T06:20:48;10.27;;;6.25;;
59028;SDS011;45919;51.420;5.454;2022-07-03T06:21:49;8.98;;;6.18;;
59028;SDS011;45919;51.420;5.454;2022-07-03T06:22:51;10.00;;;6.40;;
59028;SDS011;45919;51.420;5.454;2022-07-03T06:23:52;9.43;;;6.82;;
59028;SDS011;45919;51.420;5.454;2022-07-03T06:24:54;9.50;;;6.60;;
59028;SDS011;45919;51.420;5.454;2022-07-03T06:25:56;9.18;;;6.80;;
59028;SDS011;45919;51.420;5.454;2022-07-03T06:26:57;9.82;;;6.68;;
59028;SDS011;45919;51.420;5.454;2022-07-03T06:27:59;7.65;;;6.32;;
59028;SDS011;45919;51.420;5.454;2022-07-03T06:29:01;8.48;;;6.47;;
59028;SDS011;45919;51.420;5.454;2022-07-03T06:30:03;11.75;;;6.95;;
59028;SDS011;45919;51.420;5.454;2022-07-03T06:31:05;11.05;;;6.65;;
59028;SDS011;45919;51.420;5.454;2022-07-03T06:32:07;9.65;;;6.22;;
59028;SDS011;45919;51.420;5.454;2022-07-03T06:33:08;13.25;;;6.53;;
59028;SDS011;45919;51.420;5.454;2022-07-03T06:34:10;10.68;;;7.13;;
59028;SDS011;45919;51.420;5.454;2022-07-03T06:35:11;9.63;;;6.85;;
59028;SDS011;45919;51.420;5.454;2022-07-03T06:36:13;11.80;;;7.00;;
59028;SDS011;45919;51.420;5.454;2022-07-03T06:37:15;12.25;;;7.18;;
59028;SDS011;45919;51.420;5.454;2022-07-03T06:38:16;11.18;;;7.28;;
59028;SDS011;45919;51.420;5.454;2022-07-03T06:39:18;10.70;;;7.20;;
59028;SDS011;45919;51.420;5.454;2022-07-03T06:40:20;8.35;;;6.90;;
59028;SDS011;45919;51.420;5.454;2022-07-03T06:41:21;12.18;;;7.25;;
59028;SDS011;45919;51.420;5.454;2022-07-03T06:42:23;9.93;;;7.22;;
59028;SDS011;45919;51.420;5.454;2022-07-03T06:43:24;10.13;;;7.18;;
59028;SDS011;45919;51.420;5.454;2022-07-03T06:44:26;9.85;;;7.15;;
59028;SDS011;45919;51.420;5.454;2022-07-03T06:45:28;10.52;;;6.82;;
59028;SDS011;45919;51.420;5.454;2022-07-03T06:46:30;9.60;;;7.07;;
59028;SDS011;45919;51.420;5.454;2022-07-03T06:47:36;12.13;;;7.20;;